createdAt,value
2023-05-21T00:02:32.267Z,17.85
2023-05-21T00:05:21.007Z,18.80
2023-05-21T00:08:08.109Z,17.75
2023-05-21T00:10:55.153Z,18.48
2023-05-21T00:13:35.029Z,18.00
2023-05-21T00:16:15.775Z,18.42
2023-05-21T00:19:05.117Z,18.67
2023-05-21T00:21:53.048Z,17.95
2023-05-21T00:24:40.000Z,17.17
2023-05-21T00:27:27.035Z,17.88
2023-05-21T00:30:14.036Z,19.55
2023-05-21T00:33:01.149Z,18.50
2023-05-21T00:35:47.945Z,18.08
2023-05-21T00:38:34.969Z,18.20
2023-05-21T00:41:15.088Z,17.55
2023-05-21T00:44:03.024Z,18.35
2023-05-21T00:47:00.002Z,18.58
2023-05-21T00:49:41.294Z,17.50
2023-05-21T00:52:29.900Z,17.60
2023-05-21T00:55:17.986Z,17.65
2023-05-21T00:57:58.088Z,18.50
2023-05-21T01:00:46.956Z,17.98
2023-05-21T01:03:27.225Z,16.95
2023-05-21T01:06:14.881Z,18.33
2023-05-21T01:09:04.421Z,17.95
2023-05-21T01:11:49.610Z,17.33
2023-05-21T01:14:37.906Z,17.27
2023-05-21T01:17:25.994Z,16.83
2023-05-21T01:20:16.888Z,16.73
2023-05-21T01:23:03.911Z,17.67
2023-05-21T01:25:44.005Z,18.20
2023-05-21T01:28:30.884Z,17.50
2023-05-21T01:31:26.947Z,17.23
2023-05-21T01:34:11.750Z,17.40
2023-05-21T01:37:07.881Z,17.52
2023-05-21T01:39:54.624Z,16.75
2023-05-21T01:42:45.919Z,17.15
2023-05-21T01:45:34.112Z,16.65
2023-05-21T01:48:17.504Z,16.98
2023-05-21T01:51:07.929Z,17.08
2023-05-21T01:53:47.981Z,17.08
2023-05-21T01:56:34.904Z,16.67
2023-05-21T01:59:21.939Z,16.25
2023-05-21T02:02:02.481Z,16.90
2023-05-21T02:04:48.880Z,18.15
2023-05-21T02:07:38.864Z,17.13
2023-05-21T02:10:19.110Z,17.17
2023-05-21T02:13:05.919Z,16.90
2023-05-21T02:15:46.045Z,17.95
2023-05-21T02:18:32.865Z,18.05
2023-05-21T02:21:19.893Z,16.35
2023-05-21T02:24:00.280Z,16.40
2023-05-21T02:26:46.862Z,17.10
2023-05-21T02:29:27.302Z,17.05
2023-05-21T02:32:14.854Z,17.50
2023-05-21T02:34:55.305Z,18.42
2023-05-21T02:37:41.910Z,16.95
2023-05-21T02:40:28.927Z,17.02
2023-05-21T02:43:16.246Z,16.58
2023-05-21T02:46:09.992Z,16.80
2023-05-21T02:49:03.846Z,16.95
2023-05-21T02:51:51.896Z,16.95
2023-05-21T02:54:31.932Z,17.15
2023-05-21T02:57:18.801Z,17.40
2023-05-21T02:59:58.971Z,17.35
2023-05-21T03:02:45.874Z,17.27
2023-05-21T03:05:26.961Z,16.40
2023-05-21T03:08:13.861Z,15.85
2023-05-21T03:10:54.013Z,16.50
2023-05-21T03:13:40.900Z,17.35
2023-05-21T03:16:22.658Z,16.33
2023-05-21T03:19:09.864Z,16.30
2023-05-21T03:21:50.890Z,15.95
2023-05-21T03:24:38.866Z,15.63
2023-05-21T03:27:26.748Z,16.85
2023-05-21T03:30:16.913Z,17.02
2023-05-21T03:33:17.832Z,16.52
2023-05-21T03:35:58.189Z,15.65
2023-05-21T03:38:48.891Z,16.45
2023-05-21T03:41:35.795Z,17.27
2023-05-21T03:44:36.845Z,16.08
2023-05-21T03:47:42.853Z,15.93
2023-05-21T03:50:22.961Z,15.90
2023-05-21T03:53:09.841Z,16.15
2023-05-21T03:55:55.272Z,16.00
2023-05-21T03:58:41.781Z,16.73
2023-05-21T04:01:22.221Z,17.30
2023-05-21T04:04:08.887Z,16.63
2023-05-21T04:06:56.876Z,17.80
2023-05-21T04:09:43.725Z,16.00
2023-05-21T04:12:23.898Z,16.65
2023-05-21T04:15:10.769Z,17.10
2023-05-21T04:17:52.625Z,16.58
2023-05-21T04:20:39.698Z,17.55
2023-05-21T04:23:19.919Z,16.73
2023-05-21T04:26:09.808Z,16.35
2023-05-21T04:28:56.678Z,17.65
2023-05-21T04:31:37.468Z,18.42
2023-05-21T04:34:27.797Z,17.57
2023-05-21T04:37:15.716Z,17.85
2023-05-21T04:40:02.812Z,17.30
2023-05-21T04:42:44.010Z,17.90
2023-05-21T04:45:33.935Z,18.98
2023-05-21T04:48:20.902Z,17.58
2023-05-21T04:51:02.707Z,17.52
2023-05-21T04:53:49.725Z,17.73
2023-05-21T04:56:32.045Z,16.45
2023-05-21T04:59:18.699Z,17.98
2023-05-21T05:01:58.853Z,17.50
2023-05-21T05:04:45.735Z,16.98
2023-05-21T05:07:25.792Z,17.90
2023-05-21T05:10:12.734Z,17.00
2023-05-21T05:12:59.698Z,17.90
2023-05-21T05:15:40.005Z,18.65
2023-05-21T05:18:26.690Z,17.10
2023-05-21T05:21:07.039Z,17.10
2023-05-21T05:23:53.636Z,16.75
2023-05-21T05:26:43.643Z,17.02
2023-05-21T05:29:30.657Z,16.70
2023-05-21T05:32:17.664Z,16.75
2023-05-21T05:35:04.695Z,17.08
2023-05-21T05:37:51.641Z,17.10
2023-05-21T05:40:38.604Z,17.65
2023-05-21T05:43:19.001Z,16.35
2023-05-21T05:46:06.695Z,15.77
2023-05-21T05:48:53.686Z,16.20
2023-05-21T05:51:33.846Z,16.52
2023-05-21T05:54:20.675Z,16.08
2023-05-21T05:57:00.911Z,18.23
2023-05-21T05:59:48.604Z,16.98
2023-05-21T06:02:31.006Z,16.45
2023-05-21T06:05:17.804Z,17.40
2023-05-21T06:08:04.663Z,16.42
2023-05-21T06:10:45.297Z,16.90
2023-05-21T06:13:32.615Z,18.33
2023-05-21T06:16:13.172Z,17.63
2023-05-21T06:19:00.694Z,17.42
2023-05-21T06:21:47.697Z,16.90
2023-05-21T06:24:27.691Z,16.25
2023-05-21T06:27:15.795Z,17.10
2023-05-21T06:30:03.661Z,17.83
2023-05-21T06:32:44.417Z,17.80
2023-05-21T06:35:31.646Z,16.83
2023-05-21T06:38:18.919Z,17.90
2023-05-21T06:41:05.619Z,18.30
2023-05-21T06:43:55.157Z,16.92
2023-05-21T06:46:50.601Z,15.68
2023-05-21T06:49:32.538Z,16.90
2023-05-21T06:52:22.207Z,17.83
2023-05-21T06:55:03.153Z,16.77
2023-05-21T06:58:08.603Z,18.25
2023-05-21T07:00:49.430Z,16.60
2023-05-21T07:03:36.619Z,17.10
2023-05-21T07:06:17.066Z,17.52
2023-05-21T07:09:03.548Z,16.85
2023-05-21T07:11:44.494Z,17.27
2023-05-21T07:14:31.677Z,17.23
2023-05-21T07:17:18.595Z,17.05
2023-05-21T07:19:58.768Z,16.38
2023-05-21T07:22:46.548Z,17.08
2023-05-21T07:25:26.659Z,16.50
2023-05-21T07:28:13.677Z,16.38
2023-05-21T07:45:37.445Z,18.10
2023-05-21T07:48:25.220Z,17.73
2023-05-21T07:51:08.388Z,17.83
2023-05-21T07:53:55.527Z,19.42
2023-05-21T07:56:40.281Z,18.60
2023-05-21T07:59:40.291Z,19.52
2023-05-21T08:02:20.605Z,18.10
2023-05-21T08:05:08.215Z,19.17
2023-05-21T08:07:49.387Z,19.83
2023-05-21T08:10:36.248Z,18.88
2023-05-21T08:13:18.389Z,17.60
2023-05-21T08:16:05.233Z,18.63
2023-05-21T08:18:52.209Z,18.65
2023-05-21T08:21:39.245Z,17.92
2023-05-21T08:24:19.300Z,18.63
2023-05-21T08:27:06.165Z,18.38
2023-05-21T08:29:53.181Z,18.48
2023-05-21T08:32:33.606Z,19.52
2023-05-21T08:35:21.188Z,18.70
2023-05-21T08:38:18.131Z,18.35
2023-05-21T08:41:31.299Z,17.80
2023-05-21T08:44:20.160Z,17.83
2023-05-21T08:47:02.234Z,18.33
2023-05-21T08:49:50.114Z,18.40
2023-05-21T08:52:38.161Z,18.08
2023-05-21T08:55:25.148Z,19.25
2023-05-21T08:58:05.350Z,18.50
2023-05-21T09:00:52.197Z,17.92
2023-05-21T09:03:46.252Z,17.88
2023-05-21T09:06:34.128Z,18.35
2023-05-21T09:09:37.234Z,18.33
2023-05-21T09:12:24.187Z,17.52
2023-05-21T09:15:07.275Z,17.10
2023-05-21T09:17:55.182Z,17.52
2023-05-21T09:21:03.183Z,17.52
2023-05-21T09:23:51.256Z,17.80
2023-05-21T09:26:32.097Z,18.27
2023-05-21T09:29:20.047Z,17.80
2023-05-21T09:32:00.266Z,18.20
2023-05-21T09:34:48.156Z,17.85
2023-05-21T09:37:28.248Z,17.58
2023-05-21T09:40:30.138Z,17.98
2023-05-21T09:43:11.238Z,18.50
2023-05-21T09:46:01.325Z,18.02
2023-05-21T09:48:48.237Z,19.10
2023-05-21T09:51:35.095Z,18.60
2023-05-21T09:54:25.159Z,17.50
2023-05-21T09:57:05.672Z,17.33
2023-05-21T09:59:53.108Z,18.27
2023-05-21T10:02:46.135Z,17.45
2023-05-21T10:05:35.092Z,17.48
2023-05-21T10:08:23.250Z,18.58
2023-05-21T10:11:11.098Z,18.35
2023-05-21T10:14:02.133Z,18.08
2023-05-21T10:16:50.237Z,17.88
2023-05-21T10:19:33.013Z,19.33
2023-05-21T10:22:20.078Z,18.58
2023-05-21T10:25:10.104Z,18.23
2023-05-21T10:27:51.121Z,17.10
2023-05-21T10:30:38.420Z,18.25
2023-05-21T10:33:22.704Z,19.00
2023-05-21T10:36:10.066Z,18.55
2023-05-21T10:38:51.908Z,17.98
2023-05-21T10:42:02.101Z,17.85
2023-05-21T10:45:24.048Z,18.48
2023-05-21T10:48:36.230Z,18.23
2023-05-21T10:51:41.155Z,18.27
2023-05-21T10:54:48.038Z,17.38
2023-05-21T10:57:31.468Z,18.65
2023-05-21T11:00:20.203Z,18.42
2023-05-21T11:03:08.093Z,18.85
2023-05-21T11:05:54.865Z,19.40
2023-05-21T11:08:45.065Z,19.75
2023-05-21T11:11:50.968Z,18.10
2023-05-21T11:14:49.064Z,18.60
2023-05-21T11:17:50.305Z,18.55
2023-05-21T11:20:46.989Z,18.23
2023-05-21T11:24:04.050Z,17.15
2023-05-21T11:26:58.630Z,17.67
2023-05-21T11:29:51.060Z,18.35
2023-05-21T11:32:38.035Z,17.55
2023-05-21T11:35:22.689Z,16.85
2023-05-21T11:38:09.990Z,16.98
2023-05-21T11:40:55.068Z,17.23
2023-05-21T11:43:42.028Z,18.00
2023-05-21T11:46:22.362Z,17.63
2023-05-21T11:49:10.067Z,17.98
2023-05-21T11:51:50.561Z,17.20
2023-05-21T11:54:41.197Z,17.63
2023-05-21T11:57:22.553Z,17.42
2023-05-21T12:00:08.943Z,17.17
2023-05-21T12:02:52.500Z,17.17
2023-05-21T12:05:38.961Z,18.38
2023-05-21T12:08:27.198Z,17.65
2023-05-21T12:11:14.922Z,17.30
2023-05-21T12:13:55.554Z,19.05
2023-05-21T12:16:41.952Z,18.58
2023-05-21T12:19:29.053Z,17.02
2023-05-21T12:22:10.141Z,17.35
2023-05-21T12:24:57.974Z,18.27
2023-05-21T12:27:44.982Z,18.30
2023-05-21T12:30:26.557Z,20.42
2023-05-21T12:33:14.038Z,18.35
2023-05-21T12:35:56.241Z,18.38
2023-05-21T12:38:45.954Z,20.15
2023-05-21T12:41:26.806Z,19.42
2023-05-21T12:44:14.942Z,17.75
2023-05-21T12:46:55.461Z,18.48
2023-05-21T12:49:56.910Z,17.92
2023-05-21T12:52:37.348Z,18.60
2023-05-21T12:55:26.941Z,18.40
2023-05-21T12:58:08.810Z,18.40
2023-05-21T13:00:55.921Z,19.10
2023-05-21T13:03:37.893Z,17.73
2023-05-21T13:06:26.061Z,17.33
2023-05-21T13:09:13.023Z,17.95
2023-05-21T13:11:53.066Z,17.63
2023-05-21T13:14:39.902Z,17.42
2023-05-21T13:17:20.126Z,17.60
2023-05-21T13:20:19.883Z,17.63
2023-05-21T13:23:00.545Z,18.42
2023-05-21T13:25:48.903Z,15.88
2023-05-21T13:28:29.389Z,17.15
2023-05-21T13:31:16.877Z,15.77
2023-05-21T13:34:05.572Z,17.23
2023-05-21T13:36:46.366Z,15.88
2023-05-21T13:39:33.930Z,16.00
2023-05-21T13:42:20.848Z,16.50
2023-05-21T13:45:07.978Z,16.77
2023-05-21T13:47:48.930Z,16.52
2023-05-21T13:50:29.293Z,16.70
2023-05-21T13:53:16.027Z,17.58
2023-05-21T13:55:56.277Z,16.50
2023-05-21T13:58:42.938Z,16.58
2023-05-21T14:01:30.123Z,16.40
2023-05-21T14:04:11.902Z,16.17
2023-05-21T14:06:52.589Z,16.52
2023-05-21T14:09:39.833Z,17.45
2023-05-21T14:12:20.813Z,16.35
2023-05-21T14:15:07.867Z,17.48
2023-05-21T14:17:48.373Z,16.35
2023-05-21T14:20:34.868Z,16.35
2023-05-21T14:23:21.787Z,16.73
2023-05-21T14:26:02.005Z,17.08
2023-05-21T14:28:49.800Z,16.23
2023-05-21T14:31:29.935Z,17.27
2023-05-21T14:34:16.872Z,16.65
2023-05-21T14:36:56.967Z,16.73
2023-05-21T14:39:43.844Z,16.27
2023-05-21T14:42:24.172Z,16.45
2023-05-21T14:45:18.731Z,17.35
2023-05-21T14:47:58.923Z,17.45
2023-05-21T14:50:45.820Z,16.35
2023-05-21T14:53:26.011Z,16.25
2023-05-21T14:56:13.848Z,15.90
2023-05-21T14:58:53.894Z,16.77
2023-05-21T15:01:40.800Z,16.73
2023-05-21T15:04:20.852Z,16.73
2023-05-21T15:07:07.759Z,16.52
2023-05-21T15:09:54.779Z,16.02
2023-05-21T15:12:41.911Z,16.98
2023-05-21T15:15:23.753Z,17.25
2023-05-21T15:18:04.245Z,16.95
2023-05-21T15:20:50.783Z,15.98
2023-05-21T15:23:37.757Z,15.70
2023-05-21T15:26:17.942Z,15.75
2023-05-21T15:29:04.724Z,16.02
2023-05-21T15:31:51.764Z,17.45
2023-05-21T15:34:32.911Z,16.40
2023-05-21T15:37:21.782Z,16.63
2023-05-21T15:40:08.712Z,15.57
2023-05-21T15:42:48.808Z,16.08
2023-05-21T15:45:35.975Z,15.73
2023-05-21T15:48:20.008Z,16.80
2023-05-21T15:51:06.705Z,16.20
2023-05-21T15:53:46.820Z,15.95
2023-05-21T15:56:33.738Z,16.85
2023-05-21T15:59:13.778Z,18.35
2023-05-21T16:02:02.664Z,17.23
2023-05-21T16:04:42.797Z,16.88
2023-05-21T16:07:30.728Z,16.52
2023-05-21T16:10:10.834Z,17.80
2023-05-21T16:12:57.682Z,17.90
2023-05-21T16:15:38.125Z,18.08
2023-05-21T16:18:24.680Z,17.60
2023-05-21T16:21:04.831Z,18.13
2023-05-21T16:23:51.673Z,18.20
2023-05-21T16:26:38.708Z,18.25
2023-05-21T16:29:25.732Z,17.33
2023-05-21T16:32:05.869Z,17.83
2023-05-21T16:34:52.734Z,17.55
2023-05-21T16:37:34.574Z,17.30
2023-05-21T16:40:21.656Z,18.58
2023-05-21T16:43:08.640Z,18.60
2023-05-21T16:45:56.004Z,19.17
2023-05-21T16:48:37.989Z,18.58
2023-05-21T16:51:24.659Z,20.05
2023-05-21T16:54:05.501Z,18.10
2023-05-21T16:56:52.686Z,17.75
2023-05-21T16:59:32.740Z,17.92
2023-05-21T17:02:20.809Z,18.98
2023-05-21T17:05:00.749Z,20.85
2023-05-21T17:07:47.645Z,18.17
2023-05-21T17:10:27.857Z,19.92
2023-05-21T17:13:22.102Z,18.70
2023-05-21T17:16:02.746Z,18.73
2023-05-21T17:18:49.607Z,19.30
2023-05-21T17:21:29.762Z,18.83
2023-05-21T17:24:16.605Z,18.98
2023-05-21T17:26:56.784Z,19.02
2023-05-21T17:29:43.647Z,19.45
2023-05-21T17:32:23.670Z,19.65
2023-05-21T17:35:10.618Z,19.35
2023-05-21T17:37:50.749Z,18.73
2023-05-21T17:40:37.629Z,20.15
2023-05-21T17:43:24.601Z,18.83
2023-05-21T17:46:20.641Z,18.92
2023-05-21T17:49:02.506Z,18.55
2023-05-21T17:51:50.548Z,18.42
2023-05-21T17:54:31.547Z,20.15
2023-05-21T17:57:18.533Z,19.77
2023-05-21T18:00:05.561Z,19.92
2023-05-21T18:02:45.722Z,19.80
2023-05-21T18:05:32.588Z,19.30
2023-05-21T18:08:19.579Z,19.45
2023-05-21T18:11:08.593Z,18.88
2023-05-21T18:13:48.718Z,20.48
2023-05-21T18:16:37.619Z,21.23
2023-05-21T18:19:24.664Z,19.10
2023-05-21T18:22:11.670Z,19.27
2023-05-21T18:24:51.535Z,20.23
2023-05-21T18:27:38.699Z,19.27
2023-05-21T18:30:19.571Z,20.15
2023-05-21T18:33:06.601Z,20.63
2023-05-21T18:35:57.694Z,19.95
2023-05-21T18:38:44.550Z,19.65
2023-05-21T18:41:24.896Z,19.85
2023-05-21T18:44:12.561Z,20.98
2023-05-21T18:46:59.796Z,19.25
2023-05-21T18:49:41.634Z,19.73
2023-05-21T18:52:22.037Z,21.50
2023-05-21T18:55:08.534Z,20.08
2023-05-21T18:57:49.102Z,20.33
2023-05-21T19:00:35.739Z,20.33
2023-05-21T19:03:16.502Z,20.42
2023-05-21T19:06:03.486Z,19.58
2023-05-21T19:08:52.514Z,19.65
2023-05-21T19:11:40.518Z,19.27
2023-05-21T19:14:21.207Z,18.80
2023-05-21T19:17:08.582Z,19.75
2023-05-21T19:19:54.301Z,18.90
2023-05-21T19:22:43.533Z,19.73
2023-05-21T19:25:24.315Z,19.95
2023-05-21T19:28:11.530Z,19.27
2023-05-21T19:30:51.950Z,19.08
2023-05-21T19:46:47.857Z,18.45
2023-05-21T19:49:28.418Z,18.77
2023-05-21T19:52:14.881Z,18.38
2023-05-21T19:54:55.223Z,19.10
2023-05-21T19:57:41.874Z,19.17
2023-05-21T20:00:22.438Z,17.23
2023-05-21T20:03:10.710Z,18.08
2023-05-21T20:05:55.364Z,18.00
2023-05-21T20:08:42.839Z,18.10
2023-05-21T20:11:23.602Z,18.17
2023-05-21T20:14:10.751Z,17.55
2023-05-21T20:16:59.836Z,18.75
2023-05-21T20:19:40.858Z,18.05
2023-05-21T20:22:27.834Z,17.50
2023-05-21T20:25:15.843Z,18.25
2023-05-21T20:28:05.758Z,18.55
2023-05-21T20:31:06.829Z,18.95
2023-05-21T20:33:50.710Z,17.67
2023-05-21T20:36:40.718Z,17.48
2023-05-21T20:39:29.766Z,19.02
2023-05-21T20:42:12.145Z,18.00
2023-05-21T20:44:59.766Z,17.77
2023-05-21T20:47:39.969Z,18.52
2023-05-21T20:50:32.807Z,17.20
2023-05-21T20:53:15.753Z,17.50
2023-05-21T20:56:02.767Z,17.48
2023-05-21T20:58:45.565Z,17.63
2023-05-21T21:01:36.855Z,17.20
2023-05-21T21:04:17.879Z,17.23
2023-05-21T21:07:06.710Z,17.08
2023-05-21T21:09:49.009Z,17.50
2023-05-21T21:12:38.262Z,17.60
2023-05-21T21:15:17.902Z,17.60
2023-05-21T21:18:04.830Z,18.08
2023-05-21T21:20:49.920Z,17.52
2023-05-21T21:23:36.709Z,19.13
2023-05-21T21:26:17.883Z,17.83
2023-05-21T21:29:05.710Z,18.05
2023-05-21T21:31:47.551Z,18.38
2023-05-21T21:34:34.732Z,17.25
2023-05-21T21:37:16.331Z,17.08
2023-05-21T21:40:03.724Z,18.33
2023-05-21T21:42:43.951Z,17.90
2023-05-21T21:45:30.742Z,18.60
2023-05-21T21:48:11.653Z,17.98
2023-05-21T21:50:58.806Z,17.83
2023-05-21T21:53:38.822Z,17.65
2023-05-21T21:56:25.650Z,27.45
2023-05-21T21:59:06.013Z,19.27
2023-05-21T22:01:52.690Z,18.40
2023-05-21T22:04:39.742Z,18.58
2023-05-21T22:07:20.828Z,17.55
2023-05-21T22:10:07.657Z,18.60
2023-05-21T22:12:54.774Z,18.80
2023-05-21T22:15:34.877Z,18.05
2023-05-21T22:18:38.833Z,18.30
2023-05-21T22:21:21.439Z,18.08
2023-05-21T22:24:14.918Z,18.58
2023-05-21T22:27:07.656Z,19.33
2023-05-21T22:29:48.045Z,17.58
2023-05-21T22:32:34.688Z,19.02
2023-05-21T22:35:15.195Z,19.13
2023-05-21T22:38:02.640Z,18.58
2023-05-21T22:40:49.577Z,18.38
2023-05-21T22:43:36.652Z,18.58
2023-05-21T22:46:23.752Z,19.30
2023-05-21T22:49:03.644Z,18.98
2023-05-21T22:51:45.098Z,20.48
2023-05-21T22:54:31.665Z,19.85
2023-05-21T22:57:18.619Z,18.75
2023-05-21T23:00:05.612Z,20.75
2023-05-21T23:02:52.229Z,18.70
2023-05-21T23:05:40.802Z,17.58
2023-05-21T23:08:21.137Z,18.50
2023-05-21T23:11:07.673Z,19.42
2023-05-21T23:13:54.746Z,19.67
2023-05-21T23:16:37.791Z,18.45
2023-05-21T23:19:18.043Z,18.90
2023-05-21T23:22:04.513Z,18.98
2023-05-21T23:24:51.655Z,19.65
2023-05-21T23:27:31.729Z,18.05
2023-05-21T23:30:18.613Z,18.58
2023-05-21T23:33:05.628Z,19.67
2023-05-21T23:35:52.644Z,18.20
2023-05-21T23:38:32.640Z,18.75
2023-05-21T23:41:20.510Z,18.48
2023-05-21T23:44:00.657Z,17.42
2023-05-21T23:46:48.620Z,18.38
2023-05-21T23:49:28.608Z,18.02
2023-05-21T23:52:15.908Z,18.27
2023-05-21T23:54:55.644Z,17.83
2023-05-21T23:57:42.593Z,17.80
